Terminal Aerodrome Forecast
Issued by NWS Quad Cities IA IL

Home | Current Version | Previous Version | Text Only | Print | Product List | Glossary On
Versions: 1 2 3 4 5 6 7 8 9 10 11 12 13 14 15 16 17 18 19 20 21 22 23 24 25 26 27 28 29 30 31
000
FTUS43 KDVN 241700
TAFDBQ
TAF
KDBQ 241730Z 2418/2518 12016G23KT P6SM SCT015 BKN120
     FM250000 11012KT P6SM VCSH OVC025
      TEMPO 2501/2503 5SM -FZRA OVC015
     FM250300 12012KT 4SM -RA BR OVC007
     FM250800 32007KT 5SM BR OVC004
     FM251500 26008KT 6SM BR BKN015=

USA.gov is the U.S. government's official web portal to all federal, state and local government web resources and services.